Time;durP1;ratioP1;P1;durP2;ratioP2;P2;SDS_P1;SDS_P2;PMS_P1;PMS_P2;Temp;Humidity;BMP_temperature;BMP_pressure;BME280_temperature;BME280_humidity;BME280_pressure;Samples;Min_cycle;Max_cycle;Signal;HPM_P1;HPM_P2
2022/09/29 00:00:12;;;;;;;6.15;2.38;;;12.90;99.90;;;;;;5051869;28;19915;-82
2022/09/29 00:02:39;;;;;;;3.92;1.77;;;12.90;99.90;;;;;;5034043;28;20450;-83
2022/09/29 00:05:05;;;;;;;8.43;2.10;;;13.00;99.90;;;;;;5051903;28;20059;-82
2022/09/29 00:07:31;;;;;;;4.53;2.20;;;13.00;99.90;;;;;;5033761;28;20049;-81
2022/09/29 00:09:57;;;;;;;;;;;13.10;99.90;;;;;;5034383;28;20071;-82
2022/09/29 00:12:22;;;;;;;5.25;1.77;;;13.10;99.90;;;;;;5033840;28;19905;-83
2022/09/29 00:14:48;;;;;;;;;;;13.00;99.90;;;;;;5034082;28;20028;-82
2022/09/29 00:17:14;;;;;;;5.50;1.98;;;13.00;99.90;;;;;;5033849;28;19909;-82
2022/09/29 00:19:39;;;;;;;;;;;13.00;99.90;;;;;;5034267;28;20025;-83
2022/09/29 00:22:05;;;;;;;6.00;2.50;;;13.00;99.90;;;;;;5051678;28;19915;-83
2022/09/29 00:24:30;;;;;;;4.53;2.10;;;13.00;99.90;;;;;;5033795;28;20025;-82
2022/09/29 00:26:56;;;;;;;;;;;13.00;99.90;;;;;;5033954;28;20036;-83
2022/09/29 00:29:22;;;;;;;5.97;2.55;;;13.00;99.90;;;;;;5033083;28;20066;-82
2022/09/29 00:31:48;;;;;;;4.60;2.03;;;13.00;99.90;;;;;;5033116;28;20029;-83
2022/09/29 00:34:13;;;;;;;;;;;13.00;99.90;;;;;;5034034;28;20033;-81
2022/09/29 00:36:40;;;;;;;7.53;2.58;;;13.00;99.90;;;;;;5033599;28;20392;-81
2022/09/29 00:39:06;;;;;;;4.80;2.28;;;13.00;99.90;;;;;;5033483;28;20393;-82
2022/09/29 00:41:32;;;;;;;;;;;13.00;99.90;;;;;;5051618;28;20497;-83
2022/09/29 00:43:59;;;;;;;6.03;3.40;;;13.00;99.90;;;;;;5032961;28;20011;-82
2022/09/29 00:46:33;;;;;;;5.68;2.58;;;13.00;99.90;;;;;;5033371;28;20577;-82
2022/09/29 00:49:04;;;;;;;5.75;2.22;;;13.00;99.90;;;;;;5038425;28;20040;-83
2022/09/29 00:51:33;;;;;;;8.75;2.33;;;13.00;99.90;;;;;;5071425;28;20024;-82
2022/09/29 00:54:00;;;;;;;5.70;2.28;;;13.00;99.90;;;;;;5071207;28;20028;-83
2022/09/29 00:56:26;;;;;;;4.95;2.72;;;13.00;99.90;;;;;;5071336;28;20028;-83
2022/09/29 00:58:57;;;;;;;3.88;2.28;;;13.00;99.90;;;;;;5070167;28;20021;-82
2022/09/29 01:01:27;;;;;;;7.07;2.30;;;13.00;99.90;;;;;;5069743;28;20508;-83
2022/09/29 01:03:59;;;;;;;16.70;2.75;;;13.00;99.90;;;;;;5070322;28;20039;-83
2022/09/29 01:06:35;;;;;;;10.32;2.40;;;13.00;99.90;;;;;;5069738;28;20024;-82
2022/09/29 01:09:04;;;;;;;4.88;2.40;;;13.00;99.90;;;;;;5069398;28;20078;-82
2022/09/29 01:11:30;;;;;;;4.82;2.38;;;13.00;99.90;;;;;;5069849;28;20093;-83
2022/09/29 01:14:02;;;;;;;;;;;13.00;99.90;;;;;;5069478;28;20025;-83
2022/09/29 01:16:31;;;;;;;6.82;2.33;;;13.00;99.90;;;;;;5069423;28;19912;-82
2022/09/29 01:18:59;;;;;;;6.18;2.28;;;12.90;99.90;;;;;;5069306;28;20457;-81
2022/09/29 01:21:44;;;;;;;9.27;3.45;;;12.90;99.90;;;;;;5069425;28;20029;-82
2022/09/29 01:24:28;;;;;;;6.40;2.67;;;12.90;99.90;;;;;;5068963;28;20067;-82
2022/09/29 01:27:15;;;;;;;4.57;2.42;;;12.90;99.90;;;;;;5069515;28;20024;-82
2022/09/29 01:29:50;;;;;;;;;;;12.90;99.90;;;;;;5069077;28;20043;-83
2022/09/29 01:32:32;;;;;;;9.70;2.17;;;13.00;99.90;;;;;;5069366;28;19904;-82
2022/09/29 01:35:36;;;;;;;7.88;3.08;;;12.90;99.90;;;;;;5070783;28;20162;-82
2022/09/29 01:38:28;;;;;;;7.13;2.42;;;13.00;99.90;;;;;;5069165;28;20047;-83
2022/09/29 01:41:02;;;;;;;4.38;2.80;;;13.00;99.90;;;;;;5070945;28;20032;-83
2022/09/29 01:43:46;;;;;;;8.80;3.17;;;13.00;99.90;;;;;;5070539;28;20390;-81
2022/09/29 01:46:20;;;;;;;7.20;3.38;;;13.00;99.90;;;;;;5070632;28;20508;-82
2022/09/29 01:48:51;;;;;;;7.90;2.92;;;13.00;99.90;;;;;;5066533;28;20032;-83
2022/09/29 01:51:21;;;;;;;5.75;3.13;;;12.90;99.90;;;;;;5050086;28;20106;-83
2022/09/29 01:53:53;;;;;;;7.65;3.58;;;12.90;99.90;;;;;;5032358;28;20025;-83
2022/09/29 01:56:28;;;;;;;6.78;3.22;;;13.00;99.90;;;;;;5032259;28;20495;-82
2022/09/29 01:58:58;;;;;;;10.20;3.40;;;13.00;99.90;;;;;;5049785;28;20040;-83
2022/09/29 02:01:30;;;;;;;8.05;3.40;;;13.10;99.90;;;;;;5032332;28;20048;-82
2022/09/29 02:04:08;;;;;;;9.43;3.63;;;13.10;99.90;;;;;;5049139;28;20104;-83
2022/09/29 02:06:39;;;;;;;6.20;3.53;;;13.10;99.90;;;;;;5049083;28;20053;-83
2022/09/29 02:09:11;;;;;;;8.80;2.97;;;13.10;99.90;;;;;;5032386;28;20059;-82
2022/09/29 02:11:40;;;;;;;9.65;3.20;;;13.10;99.90;;;;;;5032155;28;20560;-82
2022/09/29 02:14:21;;;;;;;11.90;3.40;;;13.10;99.90;;;;;;5049188;28;20017;-84
2022/09/29 02:17:05;;;;;;;5.93;3.10;;;13.10;99.90;;;;;;5032984;28;20033;-83
2022/09/29 02:19:35;;;;;;;7.05;3.08;;;13.10;99.90;;;;;;5036189;28;20024;-83
2022/09/29 02:22:01;;;;;;;6.15;2.92;;;13.10;99.90;;;;;;5033264;28;20048;-82
2022/09/29 02:24:27;;;;;;;;;;;13.10;99.90;;;;;;5036482;28;20025;-83
2022/09/29 02:26:53;;;;;;;4.50;2.47;;;13.10;99.90;;;;;;5036759;28;19964;-83
2022/09/29 02:29:19;;;;;;;9.25;3.00;;;13.10;99.90;;;;;;5036802;28;20501;-83
2022/09/29 02:31:46;;;;;;;6.72;2.63;;;13.20;99.90;;;;;;5036313;28;20029;-82
2022/09/29 02:34:16;;;;;;;8.65;2.95;;;13.10;99.90;;;;;;5035949;28;20105;-83
2022/09/29 02:36:51;;;;;;;5.60;2.35;;;13.10;99.90;;;;;;5035457;28;20091;-83
2022/09/29 02:39:52;;;;;;;7.55;2.50;;;13.00;99.90;;;;;;5036112;28;20032;-82
2022/09/29 02:42:23;;;;;;;7.07;3.00;;;13.10;99.90;;;;;;5035819;28;20489;-82
2022/09/29 02:44:51;;;;;;;7.38;3.33;;;13.10;99.90;;;;;;5035792;28;20112;-82
2022/09/29 02:47:34;;;;;;;13.07;3.20;;;13.10;99.90;;;;;;5035846;28;20028;-83
2022/09/29 02:50:32;;;;;;;7.03;3.38;;;13.10;99.90;;;;;;5057521;28;20067;-83
2022/09/29 02:53:24;;;;;;;8.75;3.00;;;13.10;99.90;;;;;;5073307;28;20063;-83
2022/09/29 02:56:08;;;;;;;8.65;3.25;;;13.00;99.90;;;;;;5043774;28;20040;-82
2022/09/29 02:58:46;;;;;;;11.40;3.50;;;13.00;99.90;;;;;;5073233;28;20576;-83
2022/09/29 03:01:15;;;;;;;10.57;3.38;;;13.00;99.90;;;;;;5072288;28;20029;-83
2022/09/29 03:03:41;;;;;;;6.40;3.08;;;13.00;99.90;;;;;;5073188;28;20052;-81
2022/09/29 03:06:06;;;;;;;;;;;13.00;99.90;;;;;;5073959;28;20133;-84
2022/09/29 03:08:32;;;;;;;7.47;3.45;;;13.00;99.90;;;;;;5072232;28;19904;-82
2022/09/29 03:10:58;;;;;;;;;;;12.90;99.90;;;;;;5072908;28;20045;-82
2022/09/29 03:13:24;;;;;;;7.47;3.60;;;12.90;99.90;;;;;;5071668;28;20422;-83
2022/09/29 03:15:49;;;;;;;;;;;12.90;99.90;;;;;;5072459;28;20497;-83
2022/09/29 03:18:15;;;;;;;6.00;3.75;;;12.90;99.90;;;;;;5073331;28;20055;-82
2022/09/29 03:20:40;;;;;;;;;;;12.90;99.90;;;;;;5072021;28;20584;-82
2022/09/29 03:23:06;;;;;;;7.50;3.67;;;12.90;99.90;;;;;;5072012;28;20294;-82
2022/09/29 03:25:32;;;;;;;;;;;12.90;99.90;;;;;;5073513;28;20386;-83
2022/09/29 03:27:57;;;;;;;8.27;3.67;;;12.90;99.90;;;;;;5071918;28;19955;-82
2022/09/29 03:30:23;;;;;;;;;;;12.80;99.90;;;;;;5072064;28;20037;-83
2022/09/29 03:32:48;;;;;;;8.63;3.63;;;12.90;99.90;;;;;;5071518;28;19927;-83
2022/09/29 03:35:14;;;;;;;;;;;12.90;99.90;;;;;;5071403;28;20035;-83
2022/09/29 03:37:39;;;;;;;6.15;3.40;;;12.90;99.90;;;;;;5071672;28;20361;-83
2022/09/29 03:40:05;;;;;;;;;;;12.90;99.90;;;;;;5073365;28;20485;-84
2022/09/29 03:42:31;;;;;;;8.18;3.80;;;12.90;99.90;;;;;;5071639;28;19908;-84
2022/09/29 03:44:57;;;;;;;;;;;12.90;99.90;;;;;;5071949;28;20093;-83
2022/09/29 03:47:22;;;;;;;7.32;3.53;;;12.90;99.90;;;;;;5071552;28;19908;-84
2022/09/29 03:49:48;;;;;;;;;;;12.90;99.90;;;;;;5071503;28;20040;-83
2022/09/29 03:52:14;;;;;;;4.85;2.95;;;12.90;99.90;;;;;;5071372;28;20286;-82
2022/09/29 03:54:39;;;;;;;;;;;12.90;99.90;;;;;;5070823;28;20024;-83
2022/09/29 03:57:05;;;;;;;6.78;3.65;;;13.00;99.90;;;;;;5070321;28;19912;-83
2022/09/29 03:59:30;;;;;;;6.47;3.40;;;12.90;99.90;;;;;;5069729;28;20024;-83
2022/09/29 04:01:56;;;;;;;;;;;13.00;99.90;;;;;;5071347;28;20078;-83
2022/09/29 04:04:21;;;;;;;5.68;3.47;;;13.00;99.90;;;;;;5070792;28;20381;-83
2022/09/29 04:06:47;;;;;;;7.53;3.58;;;12.90;99.90;;;;;;5071023;28;20035;-83
2022/09/29 04:09:13;;;;;;;;;;;13.00;99.90;;;;;;5070365;28;20028;-83
2022/09/29 04:11:38;;;;;;;10.73;4.97;;;12.90;99.90;;;;;;5070318;28;19905;-83
2022/09/29 04:14:04;;;;;;;;;;;12.90;99.90;;;;;;5070392;28;20020;-83
2022/09/29 04:16:30;;;;;;;15.25;5.80;;;13.00;99.90;;;;;;5069979;28;19908;-84
2022/09/29 04:18:55;;;;;;;;;;;12.90;99.90;;;;;;5070321;28;20048;-83
2022/09/29 04:21:21;;;;;;;10.77;5.05;;;12.90;99.90;;;;;;5070909;28;19912;-84
2022/09/29 04:23:47;;;;;;;;;;;12.90;99.90;;;;;;5070360;28;20028;-84
2022/09/29 04:26:13;;;;;;;9.05;4.97;;;12.90;99.90;;;;;;5069627;28;19982;-83
2022/09/29 04:28:38;;;;;;;;;;;12.80;99.90;;;;;;5068890;28;20264;-83
2022/09/29 04:31:04;;;;;;;9.05;5.43;;;12.80;99.90;;;;;;5069371;28;19958;-83
2022/09/29 04:33:30;;;;;;;13.73;6.07;;;12.80;99.90;;;;;;5069681;28;20159;-81
2022/09/29 04:35:56;;;;;;;;;;;12.80;99.90;;;;;;5071168;28;20851;-83
2022/09/29 04:38:23;;;;;;;18.10;6.13;;;12.80;99.90;;;;;;5068875;28;19999;-83
2022/09/29 04:40:48;;;;;;;15.00;6.15;;;12.80;99.90;;;;;;5070062;28;20296;-82
2022/09/29 04:43:14;;;;;;;;;;;12.80;99.90;;;;;;5070015;28;20067;-83
2022/09/29 04:45:40;;;;;;;9.30;6.57;;;12.70;99.90;;;;;;5069675;28;19904;-83
2022/09/29 04:48:06;;;;;;;;;;;12.60;99.90;;;;;;5069393;28;20059;-82
2022/09/29 04:50:32;;;;;;;8.80;5.97;;;12.70;99.90;;;;;;5064264;28;19921;-83
2022/09/29 04:52:58;;;;;;;15.57;6.65;;;12.70;99.90;;;;;;5066517;28;20111;-83
2022/09/29 04:55:24;;;;;;;;;;;12.70;99.90;;;;;;5063414;28;20047;-83
2022/09/29 04:57:50;;;;;;;11.93;7.18;;;12.70;99.90;;;;;;5068785;28;19916;-83
2022/09/29 05:00:15;;;;;;;;;;;12.60;99.90;;;;;;5069383;28;20393;-83
2022/09/29 05:02:41;;;;;;;13.50;6.30;;;12.70;99.90;;;;;;5069931;28;19983;-81
2022/09/29 05:05:08;;;;;;;;;;;12.60;99.90;;;;;;5070467;28;20028;-83
2022/09/29 05:07:34;;;;;;;15.07;7.68;;;12.60;99.90;;;;;;5068990;28;19908;-81
2022/09/29 05:10:00;;;;;;;11.65;6.72;;;12.70;99.90;;;;;;5068677;28;20135;-82
2022/09/29 05:12:26;;;;;;;;;;;12.60;99.90;;;;;;5069682;28;20111;-82
2022/09/29 05:14:51;;;;;;;14.75;7.32;;;12.70;99.90;;;;;;5070986;28;19942;-82
2022/09/29 05:17:17;;;;;;;;;;;12.70;99.90;;;;;;5070068;28;20422;-82
2022/09/29 05:19:42;;;;;;;14.52;7.95;;;12.60;99.90;;;;;;5068705;28;19923;-82
2022/09/29 05:22:08;;;;;;;;;;;12.60;99.90;;;;;;5069232;28;20029;-83
2022/09/29 05:24:33;;;;;;;16.20;7.28;;;12.60;99.90;;;;;;5068983;28;20436;-83
2022/09/29 05:26:59;;;;;;;;;;;12.70;99.90;;;;;;5069246;28;20028;-83
2022/09/29 05:29:25;;;;;;;11.88;7.65;;;12.70;99.90;;;;;;5068544;28;20046;-83
2022/09/29 05:31:50;;;;;;;;;;;12.70;99.90;;;;;;5069097;28;20028;-83
2022/09/29 05:34:16;;;;;;;15.68;8.25;;;12.70;99.90;;;;;;5060702;28;20381;-82
2022/09/29 05:36:42;;;;;;;;;;;12.70;99.90;;;;;;5067809;28;20032;-82
2022/09/29 05:39:08;;;;;;;13.25;8.27;;;12.70;99.90;;;;;;5067516;28;19970;-82
2022/09/29 05:41:34;;;;;;;;;;;12.70;99.90;;;;;;5069328;28;20501;-83
2022/09/29 05:44:00;;;;;;;12.63;7.45;;;12.70;99.90;;;;;;5069140;28;20471;-83
2022/09/29 05:46:26;;;;;;;16.20;7.47;;;12.70;99.90;;;;;;5069311;28;20528;-82
2022/09/29 05:48:52;;;;;;;10.65;8.07;;;12.80;99.90;;;;;;5066403;28;20445;-83
2022/09/29 05:51:19;;;;;;;;;;;12.80;99.90;;;;;;5032107;28;20055;-82
2022/09/29 05:53:45;;;;;;;14.10;8.95;;;12.70;99.90;;;;;;5031684;28;19905;-81
2022/09/29 05:56:14;;;;;;;12.85;9.73;;;12.70;99.90;;;;;;5047043;28;20021;-82
2022/09/29 05:58:40;;;;;;;12.85;10.70;;;12.70;99.90;;;;;;5031253;28;20120;-83
2022/09/29 06:01:08;;;;;;;12.43;10.30;;;12.70;99.90;;;;;;5049435;28;20029;-83
2022/09/29 06:03:34;;;;;;;14.07;10.80;;;12.70;99.90;;;;;;5048714;28;20060;-82
2022/09/29 06:06:08;;;;;;;16.35;11.18;;;12.70;99.90;;;;;;5031103;28;20418;-83
2022/09/29 06:08:34;;;;;;;15.48;11.48;;;12.70;99.90;;;;;;5049380;28;20032;-83
2022/09/29 06:11:12;;;;;;;17.33;11.27;;;12.70;99.90;;;;;;5031613;28;20047;-82
2022/09/29 06:13:43;;;;;;;13.70;11.63;;;12.70;99.90;;;;;;5049539;28;20029;-83
2022/09/29 06:16:09;;;;;;;13.77;11.60;;;12.60;99.90;;;;;;5030864;28;20124;-82
2022/09/29 06:18:35;;;;;;;16.08;11.68;;;12.60;99.90;;;;;;5031530;28;20025;-82
2022/09/29 06:21:06;;;;;;;15.25;11.52;;;12.60;99.90;;;;;;5030267;28;20029;-82
2022/09/29 06:23:32;;;;;;;20.25;12.23;;;12.70;99.90;;;;;;5031225;28;20025;-83
2022/09/29 06:26:00;;;;;;;13.45;11.30;;;12.60;99.90;;;;;;5031679;28;20041;-81
2022/09/29 06:28:27;;;;;;;12.30;10.52;;;12.60;99.90;;;;;;5031247;28;20401;-83
2022/09/29 06:30:59;;;;;;;13.48;11.73;;;12.60;99.90;;;;;;5031515;28;20041;-83
2022/09/29 06:33:25;;;;;;;11.23;10.02;;;12.60;99.90;;;;;;5049300;28;20024;-83
2022/09/29 06:38:36;;;;;;;11.88;9.55;;;12.70;99.90;;;;;;5042130;28;20032;-82
2022/09/29 06:41:01;;;;;;;;;;;12.70;99.90;;;;;;5031572;28;20391;-83
2022/09/29 06:43:27;;;;;;;12.65;10.02;;;12.80;99.90;;;;;;5048979;28;20427;-83
2022/09/29 06:45:52;;;;;;;;;;;12.80;99.90;;;;;;5031572;28;20057;-82
2022/09/29 06:48:18;;;;;;;14.07;10.63;;;12.90;99.90;;;;;;5031561;28;20003;-81
2022/09/29 06:50:44;;;;;;;12.80;11.00;;;13.00;99.90;;;;;;5047396;28;20571;-83
2022/09/29 06:53:09;;;;;;;;;;;13.00;99.90;;;;;;5048610;28;20021;-82
2022/09/29 06:55:35;;;;;;;11.98;10.13;;;13.00;99.90;;;;;;5029883;28;19960;-83
2022/09/29 06:58:00;;;;;;;;;;;13.10;99.90;;;;;;5048934;28;20459;-83
2022/09/29 07:00:26;;;;;;;10.63;9.07;;;13.20;99.90;;;;;;5030969;28;19908;-84
2022/09/29 07:02:52;;;;;;;10.77;8.50;;;13.30;99.90;;;;;;5029421;28;20083;-84
2022/09/29 07:05:17;;;;;;;;;;;13.30;99.90;;;;;;5031530;28;20040;-82
2022/09/29 07:07:43;;;;;;;9.35;8.20;;;13.40;99.90;;;;;;5049603;28;19904;-84
2022/09/29 07:10:08;;;;;;;;;;;13.40;99.90;;;;;;5035030;28;20025;-83
2022/09/29 07:12:34;;;;;;;13.77;9.65;;;13.40;99.90;;;;;;5035421;28;20346;-84
2022/09/29 07:15:00;;;;;;;;;;;13.50;99.90;;;;;;5053844;28;20025;-83
2022/09/29 07:17:25;;;;;;;8.30;7.40;;;13.60;99.90;;;;;;5051776;28;19932;-84
2022/09/29 07:19:54;;;;;;;;;;;13.70;99.90;;;;;;5035507;28;20504;-84
2022/09/29 07:22:19;;;;;;;7.85;6.70;;;13.80;99.90;;;;;;5035052;28;19944;-83
2022/09/29 07:24:46;;;;;;;;;;;13.90;99.90;;;;;;5033980;28;20486;-83
2022/09/29 07:27:12;;;;;;;12.52;9.70;;;13.80;99.90;;;;;;5034840;28;19908;-83
2022/09/29 07:29:38;;;;;;;9.98;8.68;;;13.90;99.90;;;;;;5033235;28;20427;-83
2022/09/29 07:32:04;;;;;;;;;;;13.90;99.90;;;;;;5034660;28;20489;-83
2022/09/29 07:34:29;;;;;;;9.77;8.23;;;13.90;99.90;;;;;;5033780;28;19909;-83
2022/09/29 07:36:55;;;;;;;;;;;13.90;99.90;;;;;;5034261;28;20035;-83
2022/09/29 07:39:21;;;;;;;8.48;6.55;;;14.00;99.90;;;;;;5033997;28;20451;-83
2022/09/29 07:41:47;;;;;;;6.97;6.28;;;14.00;99.90;;;;;;5050915;28;20032;-82
2022/09/29 07:44:12;;;;;;;;;;;14.00;99.90;;;;;;5034817;28;20021;-83
2022/09/29 07:46:38;;;;;;;6.95;6.03;;;14.20;99.90;;;;;;5034324;28;19912;-82
2022/09/29 07:49:04;;;;;;;8.38;5.63;;;14.30;99.90;;;;;;5040607;28;20135;-83
2022/09/29 07:51:29;;;;;;;6.93;5.28;;;14.40;99.90;;;;;;5071054;28;20491;-83
2022/09/29 07:54:00;;;;;;;13.88;6.78;;;14.50;99.90;;;;;;5070850;28;20413;-85
2022/09/29 07:56:26;;;;;;;12.45;7.07;;;14.60;99.90;;;;;;5071879;28;20024;-84
2022/09/29 07:58:51;;;;;;;;;;;14.60;99.90;;;;;;5073557;28;20175;-84
2022/09/29 08:01:18;;;;;;;11.02;8.23;;;14.60;99.90;;;;;;5071903;28;20443;-83
2022/09/29 08:03:51;;;;;;;9.10;7.05;;;14.70;99.90;;;;;;5071801;28;20054;-84
2022/09/29 08:06:16;;;;;;;10.05;6.20;;;14.70;99.90;;;;;;5069607;28;20577;-84
2022/09/29 08:08:42;;;;;;;;;;;14.70;99.90;;;;;;5072471;28;20029;-85
2022/09/29 08:11:11;;;;;;;9.40;6.60;;;14.60;99.90;;;;;;5071854;28;19970;-85
2022/09/29 08:13:37;;;;;;;7.65;5.40;;;14.60;99.90;;;;;;5072239;28;20024;-85
2022/09/29 08:16:05;;;;;;;9.07;5.90;;;14.60;99.90;;;;;;5067818;28;20382;-84
2022/09/29 08:18:31;;;;;;;5.60;4.95;;;14.50;99.90;;;;;;5051487;28;20029;-84
2022/09/29 08:20:57;;;;;;;10.20;6.75;;;14.50;99.90;;;;;;5051194;28;20021;-83
2022/09/29 08:23:23;;;;;;;;;;;14.50;99.90;;;;;;5068995;28;20507;-84
2022/09/29 08:25:49;;;;;;;18.00;8.65;;;14.40;99.90;;;;;;5069821;28;20312;-83
2022/09/29 08:28:15;;;;;;;28.10;25.10;;;14.40;99.90;;;;;;5069392;28;20021;-86
2022/09/29 08:30:41;;;;;;;16.23;14.52;;;14.40;99.90;;;;;;5072161;28;20033;-86
2022/09/29 08:33:13;;;;;;;;;;;14.40;99.90;;;;;;5072291;28;20024;-86
2022/09/29 08:35:39;;;;;;;9.27;7.82;;;14.50;99.90;;;;;;5071254;28;19908;-86
2022/09/29 08:38:05;;;;;;;8.70;7.82;;;14.40;99.90;;;;;;5070639;28;20143;-84
2022/09/29 08:40:30;;;;;;;;;;;14.40;99.90;;;;;;5072911;28;20565;-84
2022/09/29 08:43:13;;;;;;;9.98;8.73;;;14.40;99.90;;;;;;5070803;28;19904;-83
2022/09/29 08:46:20;;;;;;;11.00;8.60;;;14.40;99.90;;;;;;5054132;28;20020;-85
2022/09/29 08:48:46;;;;;;;10.05;9.05;;;14.30;99.90;;;;;;5067339;28;20037;-83
2022/09/29 08:51:24;;;;;;;;;;;14.30;99.90;;;;;;5028870;28;20044;-82
2022/09/29 08:53:53;;;;;;;13.52;10.60;;;14.20;99.90;;;;;;5029976;28;19909;-82
2022/09/29 08:56:18;;;;;;;11.68;10.10;;;14.20;99.90;;;;;;5012129;28;20091;-82
2022/09/29 08:58:44;;;;;;;;;;;14.30;99.90;;;;;;5012170;28;20025;-82
2022/09/29 09:01:20;;;;;;;9.30;8.35;;;14.20;99.90;;;;;;5012045;28;19963;-82
2022/09/29 09:04:05;;;;;;;;;;;14.20;99.90;;;;;;5013086;28;20030;-82
2022/09/29 09:06:43;;;;;;;9.18;7.00;;;14.20;99.90;;;;;;5019112;28;19941;-81
2022/09/29 09:09:33;;;;;;;9.52;6.63;;;14.20;99.90;;;;;;5014421;28;20030;-82
2022/09/29 09:12:28;;;;;;;7.03;5.85;;;14.20;99.90;;;;;;5046347;28;20045;-83
2022/09/29 09:15:03;;;;;;;10.52;7.15;;;14.10;99.90;;;;;;5015748;28;20025;-82
2022/09/29 09:18:04;;;;;;;6.63;5.40;;;14.20;99.90;;;;;;5011994;28;20037;-82
2022/09/29 09:20:40;;;;;;;11.02;6.80;;;14.20;99.90;;;;;;5017747;28;20517;-83
2022/09/29 09:23:45;;;;;;;8.63;7.60;;;14.20;99.90;;;;;;5019532;28;20035;-83
2022/09/29 09:26:12;;;;;;;8.73;6.95;;;14.20;99.90;;;;;;5008484;28;20039;-80
2022/09/29 09:28:56;;;;;;;7.22;6.03;;;14.20;99.90;;;;;;5032380;28;20033;-83
2022/09/29 09:31:27;;;;;;;7.75;6.78;;;14.30;99.90;;;;;;5030730;28;20037;-84
2022/09/29 09:34:00;;;;;;;7.97;6.63;;;14.40;99.90;;;;;;5048073;28;20025;-85
2022/09/29 09:36:35;;;;;;;6.90;6.20;;;14.50;99.90;;;;;;5030765;28;20033;-78
2022/09/29 09:39:16;;;;;;;10.25;8.80;;;14.60;99.90;;;;;;5030641;28;20104;-82
2022/09/29 09:41:46;;;;;;;10.38;8.75;;;14.70;99.90;;;;;;5049781;28;20033;-83
2022/09/29 09:44:25;;;;;;;9.32;7.38;;;14.80;99.90;;;;;;5032292;28;20025;-82
2022/09/29 09:46:53;;;;;;;11.07;9.43;;;15.10;99.90;;;;;;5032110;28;20036;-83
2022/09/29 09:49:24;;;;;;;13.93;9.70;;;15.50;99.90;;;;;;5041206;28;20072;-81
2022/09/29 09:51:51;;;;;;;13.63;9.98;;;15.70;99.90;;;;;;5068756;28;20542;-84
2022/09/29 09:54:24;;;;;;;14.15;10.60;;;16.00;99.90;;;;;;5069958;28;20032;-83
2022/09/29 09:57:08;;;;;;;10.80;8.60;;;16.30;99.90;;;;;;5069720;28;20029;-84
2022/09/29 10:00:09;;;;;;;13.63;8.00;;;16.60;99.90;;;;;;5070102;28;20021;-82
2022/09/29 10:02:42;;;;;;;8.77;6.25;;;16.90;99.90;;;;;;5068704;28;20523;-82
2022/09/29 10:05:15;;;;;;;7.60;5.78;;;17.20;99.90;;;;;;5067556;28;20021;-84
2022/09/29 10:07:41;;;;;;;7.88;5.63;;;17.40;99.90;;;;;;5068803;28;20033;-84
2022/09/29 10:10:23;;;;;;;6.78;5.57;;;17.70;99.90;;;;;;5068785;28;20097;-85
2022/09/29 10:13:03;;;;;;;9.43;6.15;;;17.80;99.90;;;;;;5069344;28;20123;-81
2022/09/29 10:15:45;;;;;;;5.93;4.80;;;18.10;99.90;;;;;;5070319;28;20060;-80
2022/09/29 10:18:39;;;;;;;7.03;5.38;;;18.30;99.90;;;;;;5069296;28;20047;-81
2022/09/29 10:21:25;;;;;;;7.28;4.38;;;18.30;99.90;;;;;;5069267;28;20028;-82
2022/09/29 10:23:52;;;;;;;6.20;4.53;;;18.40;99.90;;;;;;5068561;28;20021;-82
2022/09/29 10:26:25;;;;;;;5.88;3.63;;;18.50;99.90;;;;;;5070613;28;20032;-82
2022/09/29 10:29:00;;;;;;;5.22;2.92;;;18.60;99.90;;;;;;5068834;28;20029;-82
2022/09/29 10:31:29;;;;;;;4.43;3.17;;;18.80;99.90;;;;;;5068605;28;20028;-83
2022/09/29 10:33:58;;;;;;;3.13;2.60;;;18.90;99.90;;;;;;5068712;28;20397;-83
2022/09/29 10:36:30;;;;;;;3.75;3.10;;;19.10;99.90;;;;;;5070324;28;20024;-82
2022/09/29 10:38:57;;;;;;;4.30;2.88;;;19.20;99.90;;;;;;5069263;28;20063;-81
2022/09/29 10:41:24;;;;;;;5.20;2.67;;;19.40;99.90;;;;;;5069632;28;20078;-82
2022/09/29 10:43:51;;;;;;;3.17;2.33;;;19.40;99.90;;;;;;5072166;28;20397;-83
2022/09/29 10:46:35;;;;;;;4.03;2.42;;;19.20;99.90;;;;;;5074216;28;20020;-83
2022/09/29 10:49:22;;;;;;;4.35;2.20;;;19.00;99.90;;;;;;5073075;28;20130;-82
2022/09/29 10:51:57;;;;;;;1.88;1.40;;;18.90;99.90;;;;;;5073733;28;20031;-83
2022/09/29 10:54:25;;;;;;;3.30;0.90;;;18.70;99.90;;;;;;5074054;28;20447;-81
2022/09/29 10:56:51;;;;;;;2.50;1.10;;;18.60;99.90;;;;;;5074827;28;20528;-83
2022/09/29 10:59:18;;;;;;;1.27;0.80;;;18.60;99.90;;;;;;5073216;28;20098;-84
2022/09/29 11:01:50;;;;;;;2.40;1.17;;;18.70;99.90;;;;;;5072905;28;20056;-83
2022/09/29 11:04:27;;;;;;;1.95;1.10;;;18.70;99.90;;;;;;5072661;28;20066;-83
2022/09/29 11:06:53;;;;;;;1.10;0.70;;;18.70;99.90;;;;;;5072845;28;20031;-83
2022/09/29 11:09:18;;;;;;;2.83;0.77;;;18.70;99.90;;;;;;5072933;28;20016;-83
2022/09/29 11:11:47;;;;;;;1.45;0.90;;;18.80;99.90;;;;;;5071801;28;20033;-83
2022/09/29 11:14:36;;;;;;;1.20;0.70;;;18.90;99.90;;;;;;5074327;28;20020;-83
2022/09/29 11:17:24;;;;;;;0.98;0.70;;;18.90;99.90;;;;;;5062131;28;20094;-83
2022/09/29 11:20:01;;;;;;;1.80;0.90;;;18.80;99.90;;;;;;5072455;28;20210;-83
2022/09/29 11:22:50;;;;;;;1.45;0.63;;;18.80;99.90;;;;;;5071373;28;20051;-82
2022/09/29 11:25:32;;;;;;;1.00;0.73;;;18.80;99.90;;;;;;5072892;28;20504;-83
2022/09/29 11:28:09;;;;;;;1.98;0.70;;;19.20;99.90;;;;;;5072538;28;20021;-84
2022/09/29 11:31:08;;;;;;;0.80;0.60;;;19.40;99.90;;;;;;5072778;28;20033;-84
2022/09/29 11:33:57;;;;;;;2.75;0.70;;;19.70;99.90;;;;;;5071490;28;20094;-84
2022/09/29 11:36:38;;;;;;;1.25;0.80;;;19.80;99.90;;;;;;5071481;28;20083;-84
2022/09/29 11:39:21;;;;;;;1.58;0.60;;;19.80;99.90;;;;;;5073760;28;20063;-82
2022/09/29 11:42:15;;;;;;;1.20;0.73;;;19.80;99.90;;;;;;5072242;28;20821;-83
2022/09/29 11:44:57;;;;;;;1.85;0.80;;;19.60;99.90;;;;;;5071086;28;20036;-83
2022/09/29 11:47:47;;;;;;;2.40;0.73;;;19.40;99.90;;;;;;5071067;28;20029;-83
2022/09/29 11:50:20;;;;;;;1.30;0.95;;;19.20;99.90;;;;;;5058954;28;20532;-83
2022/09/29 11:52:47;;;;;;;1.42;0.82;;;19.10;99.90;;;;;;5053730;28;20032;-83
2022/09/29 11:55:44;;;;;;;1.17;0.73;;;19.00;99.90;;;;;;5034910;28;20024;-83
2022/09/29 11:58:34;;;;;;;1.50;0.52;;;19.00;99.90;;;;;;5053786;28;20523;-84
2022/09/29 12:01:25;;;;;;;1.30;0.90;;;19.00;99.90;;;;;;5035971;28;20033;-83
2022/09/29 12:03:59;;;;;;;1.45;1.00;;;18.90;99.90;;;;;;5035812;28;20501;-83
2022/09/29 12:07:01;;;;;;;3.03;1.38;;;18.90;99.90;;;;;;5052944;28;20021;-83
2022/09/29 12:09:33;;;;;;;2.15;1.20;;;19.10;99.90;;;;;;5035675;28;20050;-84
2022/09/29 12:12:15;;;;;;;2.72;1.38;;;19.30;99.90;;;;;;5035355;28;20037;-84
2022/09/29 12:15:01;;;;;;;1.95;0.93;;;19.50;99.90;;;;;;5035524;28;20029;-84
2022/09/29 12:17:30;;;;;;;;;;;19.50;99.90;;;;;;5036288;28;20058;-83
2022/09/29 12:20:43;;;;;;;1.88;0.70;;;19.40;99.90;;;;;;5053279;28;19908;-84
2022/09/29 12:23:13;;;;;;;4.40;1.10;;;19.20;99.90;;;;;;5026926;28;20048;-83
2022/09/29 12:26:01;;;;;;;2.03;1.08;;;19.00;99.90;;;;;;5052998;28;20104;-82
2022/09/29 12:28:57;;;;;;;1.73;0.93;;;18.80;99.90;;;;;;5034213;28;20132;-82
2022/09/29 12:31:46;;;;;;;1.85;1.00;;;18.60;99.90;;;;;;5029513;28;20040;-83
2022/09/29 12:34:14;;;;;;;0.93;0.73;;;18.60;99.90;;;;;;5051343;28;20021;-82
2022/09/29 12:37:02;;;;;;;1.55;0.60;;;18.60;99.90;;;;;;5052456;28;20032;-82
2022/09/29 12:39:32;;;;;;;0.80;0.40;;;18.80;99.90;;;;;;5052537;28;20024;-82
2022/09/29 12:42:31;;;;;;;0.80;0.40;;;18.90;99.90;;;;;;5034593;28;20106;-82
2022/09/29 12:45:20;;;;;;;3.92;0.40;;;18.80;99.90;;;;;;5052584;28;20031;-82
2022/09/29 12:47:49;;;;;;;0.50;0.32;;;18.70;99.90;;;;;;5052044;28;20109;-81
2022/09/29 12:50:31;;;;;;;1.25;0.30;;;18.50;99.90;;;;;;5051086;28;20049;-81
2022/09/29 12:53:15;;;;;;;3.63;0.40;;;18.30;99.90;;;;;;5033933;28;20482;-81
2022/09/29 12:55:54;;;;;;;2.33;0.40;;;18.30;99.90;;;;;;5034206;28;20033;-82
2022/09/29 12:59:02;;;;;;;1.15;0.40;;;18.30;99.90;;;;;;5050781;28;20081;-83
2022/09/29 13:01:31;;;;;;;1.77;0.40;;;18.30;99.90;;;;;;5015746;28;20593;-83
2022/09/29 13:04:29;;;;;;;0.77;0.30;;;18.40;99.90;;;;;;5033846;28;20072;-82
2022/09/29 13:07:38;;;;;;;0.60;0.45;;;18.40;99.90;;;;;;5033349;28;20485;-82
2022/09/29 13:10:17;;;;;;;0.63;0.50;;;18.50;99.90;;;;;;5018756;28;20041;-82
2022/09/29 13:13:07;;;;;;;1.02;0.45;;;18.40;99.90;;;;;;5033502;28;20087;-83
2022/09/29 13:15:42;;;;;;;0.95;0.47;;;18.40;99.90;;;;;;5034242;28;20032;-82
2022/09/29 13:18:23;;;;;;;0.82;0.50;;;18.30;99.90;;;;;;5034631;28;20112;-84
2022/09/29 13:21:01;;;;;;;0.90;0.50;;;18.30;99.90;;;;;;5052135;28;20036;-83
2022/09/29 13:23:46;;;;;;;0.80;0.40;;;18.30;99.90;;;;;;5034356;28;20035;-83
2022/09/29 13:26:33;;;;;;;1.27;0.50;;;18.20;99.90;;;;;;5034518;28;20116;-82
2022/09/29 13:29:09;;;;;;;1.00;0.50;;;18.20;99.90;;;;;;5034538;28;20024;-83